sensor_id;sensor_type;location;lat;lon;timestamp;P1;durP1;ratioP1;P2;durP2;ratioP2
22363;SDS011;11349;53.412;-1.328;2023-05-10T00:01:11;17.33;;;3.40;;
22363;SDS011;11349;53.412;-1.328;2023-05-10T00:03:36;8.32;;;2.83;;
22363;SDS011;11349;53.412;-1.328;2023-05-10T00:06:02;9.93;;;3.30;;
22363;SDS011;11349;53.412;-1.328;2023-05-10T00:08:28;11.88;;;3.35;;
22363;SDS011;11349;53.412;-1.328;2023-05-10T00:10:53;12.02;;;3.35;;
22363;SDS011;11349;53.412;-1.328;2023-05-10T00:13:19;15.80;;;3.67;;
22363;SDS011;11349;53.412;-1.328;2023-05-10T00:15:45;12.02;;;3.30;;
22363;SDS011;11349;53.412;-1.328;2023-05-10T00:18:10;11.48;;;3.03;;
22363;SDS011;11349;53.412;-1.328;2023-05-10T00:20:36;8.68;;;3.10;;
22363;SDS011;11349;53.412;-1.328;2023-05-10T00:23:02;9.63;;;2.85;;
22363;SDS011;11349;53.412;-1.328;2023-05-10T00:25:28;14.30;;;3.50;;
22363;SDS011;11349;53.412;-1.328;2023-05-10T00:27:53;8.73;;;3.05;;
22363;SDS011;11349;53.412;-1.328;2023-05-10T00:30:22;11.93;;;3.75;;
22363;SDS011;11349;53.412;-1.328;2023-05-10T00:32:47;12.50;;;3.75;;
22363;SDS011;11349;53.412;-1.328;2023-05-10T00:35:14;10.80;;;3.33;;
22363;SDS011;11349;53.412;-1.328;2023-05-10T00:37:40;9.15;;;2.80;;
22363;SDS011;11349;53.412;-1.328;2023-05-10T00:40:06;9.75;;;3.05;;
22363;SDS011;11349;53.412;-1.328;2023-05-10T00:42:32;10.98;;;3.08;;
22363;SDS011;11349;53.412;-1.328;2023-05-10T00:44:58;8.30;;;2.35;;
22363;SDS011;11349;53.412;-1.328;2023-05-10T00:47:24;9.23;;;2.70;;
22363;SDS011;11349;53.412;-1.328;2023-05-10T00:49:50;11.10;;;2.80;;
22363;SDS011;11349;53.412;-1.328;2023-05-10T00:52:16;8.25;;;2.53;;
22363;SDS011;11349;53.412;-1.328;2023-05-10T00:54:42;9.45;;;3.83;;
22363;SDS011;11349;53.412;-1.328;2023-05-10T00:57:08;10.50;;;2.67;;
22363;SDS011;11349;53.412;-1.328;2023-05-10T00:59:34;9.15;;;3.00;;
22363;SDS011;11349;53.412;-1.328;2023-05-10T01:01:59;11.75;;;3.05;;
22363;SDS011;11349;53.412;-1.328;2023-05-10T01:04:26;12.70;;;3.35;;
22363;SDS011;11349;53.412;-1.328;2023-05-10T01:06:52;7.78;;;2.75;;
22363;SDS011;11349;53.412;-1.328;2023-05-10T01:09:24;13.43;;;3.25;;
22363;SDS011;11349;53.412;-1.328;2023-05-10T01:11:51;7.35;;;2.45;;
22363;SDS011;11349;53.412;-1.328;2023-05-10T01:14:18;16.00;;;2.83;;
22363;SDS011;11349;53.412;-1.328;2023-05-10T01:16:45;12.77;;;3.60;;
22363;SDS011;11349;53.412;-1.328;2023-05-10T01:19:15;13.23;;;3.15;;
22363;SDS011;11349;53.412;-1.328;2023-05-10T01:38:48;11.10;;;3.55;;
22363;SDS011;11349;53.412;-1.328;2023-05-10T01:41:22;15.02;;;4.45;;
22363;SDS011;11349;53.412;-1.328;2023-05-10T01:43:56;21.98;;;5.13;;
22363;SDS011;11349;53.412;-1.328;2023-05-10T01:46:31;14.25;;;4.13;;
22363;SDS011;11349;53.412;-1.328;2023-05-10T01:49:00;14.30;;;3.83;;
22363;SDS011;11349;53.412;-1.328;2023-05-10T01:51:31;15.48;;;4.45;;
22363;SDS011;11349;53.412;-1.328;2023-05-10T01:54:04;14.68;;;4.88;;
22363;SDS011;11349;53.412;-1.328;2023-05-10T01:56:31;15.02;;;4.72;;
22363;SDS011;11349;53.412;-1.328;2023-05-10T01:58:59;12.52;;;4.28;;
22363;SDS011;11349;53.412;-1.328;2023-05-10T02:01:30;15.25;;;4.47;;
22363;SDS011;11349;53.412;-1.328;2023-05-10T02:03:58;15.25;;;4.38;;
22363;SDS011;11349;53.412;-1.328;2023-05-10T02:06:24;19.67;;;4.70;;
22363;SDS011;11349;53.412;-1.328;2023-05-10T02:08:52;13.52;;;4.45;;
22363;SDS011;11349;53.412;-1.328;2023-05-10T02:11:18;17.77;;;5.00;;
22363;SDS011;11349;53.412;-1.328;2023-05-10T02:13:46;16.35;;;4.47;;
22363;SDS011;11349;53.412;-1.328;2023-05-10T02:16:14;10.70;;;4.43;;
22363;SDS011;11349;53.412;-1.328;2023-05-10T02:18:41;16.83;;;5.25;;
22363;SDS011;11349;53.412;-1.328;2023-05-10T02:21:08;13.75;;;4.80;;
22363;SDS011;11349;53.412;-1.328;2023-05-10T02:23:35;11.80;;;3.67;;
22363;SDS011;11349;53.412;-1.328;2023-05-10T02:26:02;13.02;;;4.45;;
22363;SDS011;11349;53.412;-1.328;2023-05-10T02:28:30;14.27;;;3.90;;
22363;SDS011;11349;53.412;-1.328;2023-05-10T02:30:57;16.10;;;4.53;;
22363;SDS011;11349;53.412;-1.328;2023-05-10T02:33:24;14.10;;;3.88;;
22363;SDS011;11349;53.412;-1.328;2023-05-10T02:35:51;16.30;;;3.45;;
22363;SDS011;11349;53.412;-1.328;2023-05-10T02:38:17;13.73;;;3.25;;
22363;SDS011;11349;53.412;-1.328;2023-05-10T02:40:45;10.45;;;3.28;;
22363;SDS011;11349;53.412;-1.328;2023-05-10T02:43:12;16.73;;;4.47;;
22363;SDS011;11349;53.412;-1.328;2023-05-10T02:45:41;16.05;;;4.72;;
22363;SDS011;11349;53.412;-1.328;2023-05-10T02:48:08;14.88;;;3.53;;
22363;SDS011;11349;53.412;-1.328;2023-05-10T02:50:34;17.02;;;5.28;;
22363;SDS011;11349;53.412;-1.328;2023-05-10T02:53:06;11.73;;;4.50;;
22363;SDS011;11349;53.412;-1.328;2023-05-10T02:55:37;20.90;;;5.68;;
22363;SDS011;11349;53.412;-1.328;2023-05-10T02:58:05;16.35;;;4.10;;
22363;SDS011;11349;53.412;-1.328;2023-05-10T03:00:31;18.95;;;4.78;;
22363;SDS011;11349;53.412;-1.328;2023-05-10T03:02:57;16.63;;;4.20;;
22363;SDS011;11349;53.412;-1.328;2023-05-10T03:05:23;17.20;;;4.53;;
22363;SDS011;11349;53.412;-1.328;2023-05-10T03:07:49;16.52;;;4.78;;
22363;SDS011;11349;53.412;-1.328;2023-05-10T03:10:16;18.00;;;6.28;;
22363;SDS011;11349;53.412;-1.328;2023-05-10T03:18:24;20.95;;;6.38;;
22363;SDS011;11349;53.412;-1.328;2023-05-10T03:20:57;22.70;;;7.43;;
22363;SDS011;11349;53.412;-1.328;2023-05-10T03:23:27;23.75;;;8.05;;
22363;SDS011;11349;53.412;-1.328;2023-05-10T03:26:03;22.88;;;7.70;;
22363;SDS011;11349;53.412;-1.328;2023-05-10T03:28:30;20.58;;;6.53;;
22363;SDS011;11349;53.412;-1.328;2023-05-10T03:30:57;22.25;;;6.20;;
22363;SDS011;11349;53.412;-1.328;2023-05-10T03:33:24;18.52;;;5.55;;
22363;SDS011;11349;53.412;-1.328;2023-05-10T03:35:50;13.52;;;4.50;;
22363;SDS011;11349;53.412;-1.328;2023-05-10T03:38:16;16.50;;;4.88;;
22363;SDS011;11349;53.412;-1.328;2023-05-10T03:40:41;20.95;;;5.50;;
22363;SDS011;11349;53.412;-1.328;2023-05-10T03:43:07;10.32;;;4.72;;
22363;SDS011;11349;53.412;-1.328;2023-05-10T03:45:33;12.98;;;4.43;;
22363;SDS011;11349;53.412;-1.328;2023-05-10T03:47:58;17.25;;;5.78;;
22363;SDS011;11349;53.412;-1.328;2023-05-10T03:50:24;15.15;;;5.10;;
22363;SDS011;11349;53.412;-1.328;2023-05-10T03:52:51;15.00;;;4.60;;
22363;SDS011;11349;53.412;-1.328;2023-05-10T03:55:17;16.70;;;5.18;;
22363;SDS011;11349;53.412;-1.328;2023-05-10T03:57:43;14.52;;;4.95;;
22363;SDS011;11349;53.412;-1.328;2023-05-10T04:00:09;16.05;;;4.78;;
22363;SDS011;11349;53.412;-1.328;2023-05-10T04:02:35;18.02;;;4.95;;
22363;SDS011;11349;53.412;-1.328;2023-05-10T04:05:04;9.85;;;4.30;;
22363;SDS011;11349;53.412;-1.328;2023-05-10T04:07:29;13.90;;;5.00;;
22363;SDS011;11349;53.412;-1.328;2023-05-10T04:09:55;13.30;;;4.63;;
22363;SDS011;11349;53.412;-1.328;2023-05-10T04:12:21;11.40;;;5.90;;
22363;SDS011;11349;53.412;-1.328;2023-05-10T04:14:46;16.17;;;5.18;;
22363;SDS011;11349;53.412;-1.328;2023-05-10T04:17:12;10.18;;;4.78;;
22363;SDS011;11349;53.412;-1.328;2023-05-10T04:19:38;17.58;;;6.07;;
22363;SDS011;11349;53.412;-1.328;2023-05-10T04:22:04;16.60;;;5.82;;
22363;SDS011;11349;53.412;-1.328;2023-05-10T04:24:30;15.70;;;5.40;;
22363;SDS011;11349;53.412;-1.328;2023-05-10T04:26:56;14.93;;;5.30;;
22363;SDS011;11349;53.412;-1.328;2023-05-10T04:29:21;18.67;;;5.90;;
22363;SDS011;11349;53.412;-1.328;2023-05-10T04:31:47;15.18;;;5.78;;
22363;SDS011;11349;53.412;-1.328;2023-05-10T04:34:13;15.05;;;5.82;;
22363;SDS011;11349;53.412;-1.328;2023-05-10T04:36:39;17.95;;;6.57;;
22363;SDS011;11349;53.412;-1.328;2023-05-10T04:39:05;15.02;;;5.95;;
22363;SDS011;11349;53.412;-1.328;2023-05-10T04:41:31;17.02;;;5.75;;
22363;SDS011;11349;53.412;-1.328;2023-05-10T04:43:56;15.05;;;5.85;;
22363;SDS011;11349;53.412;-1.328;2023-05-10T04:46:22;18.83;;;6.05;;
22363;SDS011;11349;53.412;-1.328;2023-05-10T04:48:48;13.32;;;4.93;;
22363;SDS011;11349;53.412;-1.328;2023-05-10T04:51:13;17.33;;;6.15;;
22363;SDS011;11349;53.412;-1.328;2023-05-10T04:53:39;13.88;;;4.72;;
22363;SDS011;11349;53.412;-1.328;2023-05-10T04:56:05;13.77;;;5.22;;
22363;SDS011;11349;53.412;-1.328;2023-05-10T04:58:31;12.75;;;4.20;;
22363;SDS011;11349;53.412;-1.328;2023-05-10T05:01:04;11.93;;;4.63;;
22363;SDS011;11349;53.412;-1.328;2023-05-10T05:03:31;13.70;;;4.88;;
22363;SDS011;11349;53.412;-1.328;2023-05-10T05:05:57;14.90;;;4.40;;
22363;SDS011;11349;53.412;-1.328;2023-05-10T05:08:23;13.13;;;4.30;;
22363;SDS011;11349;53.412;-1.328;2023-05-10T05:10:49;11.63;;;4.68;;
22363;SDS011;11349;53.412;-1.328;2023-05-10T05:13:15;12.18;;;3.88;;
22363;SDS011;11349;53.412;-1.328;2023-05-10T05:15:43;14.05;;;4.88;;
22363;SDS011;11349;53.412;-1.328;2023-05-10T05:18:09;16.73;;;5.07;;
22363;SDS011;11349;53.412;-1.328;2023-05-10T05:20:35;13.45;;;4.90;;
22363;SDS011;11349;53.412;-1.328;2023-05-10T05:23:00;15.05;;;5.53;;
22363;SDS011;11349;53.412;-1.328;2023-05-10T05:25:26;17.55;;;6.63;;
22363;SDS011;11349;53.412;-1.328;2023-05-10T05:27:52;12.27;;;4.90;;
22363;SDS011;11349;53.412;-1.328;2023-05-10T05:30:18;12.43;;;5.00;;
22363;SDS011;11349;53.412;-1.328;2023-05-10T05:32:43;12.27;;;5.00;;
22363;SDS011;11349;53.412;-1.328;2023-05-10T05:35:09;19.35;;;5.47;;
22363;SDS011;11349;53.412;-1.328;2023-05-10T05:37:38;13.23;;;4.75;;
22363;SDS011;11349;53.412;-1.328;2023-05-10T05:40:04;11.95;;;5.03;;
22363;SDS011;11349;53.412;-1.328;2023-05-10T05:42:31;16.10;;;5.47;;
22363;SDS011;11349;53.412;-1.328;2023-05-10T05:44:56;12.15;;;4.60;;
22363;SDS011;11349;53.412;-1.328;2023-05-10T05:47:22;17.55;;;5.20;;
22363;SDS011;11349;53.412;-1.328;2023-05-10T05:49:48;13.02;;;4.90;;
22363;SDS011;11349;53.412;-1.328;2023-05-10T05:52:14;11.75;;;4.63;;
22363;SDS011;11349;53.412;-1.328;2023-05-10T05:54:39;14.68;;;5.07;;
22363;SDS011;11349;53.412;-1.328;2023-05-10T05:57:05;11.23;;;4.68;;
22363;SDS011;11349;53.412;-1.328;2023-05-10T05:59:31;11.30;;;4.57;;
22363;SDS011;11349;53.412;-1.328;2023-05-10T06:01:57;11.70;;;4.90;;
22363;SDS011;11349;53.412;-1.328;2023-05-10T06:04:22;16.73;;;4.93;;
22363;SDS011;11349;53.412;-1.328;2023-05-10T06:06:48;13.63;;;5.80;;
22363;SDS011;11349;53.412;-1.328;2023-05-10T06:09:14;10.00;;;3.90;;
22363;SDS011;11349;53.412;-1.328;2023-05-10T06:11:39;13.20;;;5.45;;
22363;SDS011;11349;53.412;-1.328;2023-05-10T06:14:07;13.55;;;5.38;;
22363;SDS011;11349;53.412;-1.328;2023-05-10T06:16:33;13.07;;;5.70;;
22363;SDS011;11349;53.412;-1.328;2023-05-10T06:18:59;15.45;;;5.40;;
22363;SDS011;11349;53.412;-1.328;2023-05-10T06:21:24;13.75;;;5.28;;
22363;SDS011;11349;53.412;-1.328;2023-05-10T06:23:50;14.88;;;5.45;;
22363;SDS011;11349;53.412;-1.328;2023-05-10T06:26:16;15.73;;;6.13;;
22363;SDS011;11349;53.412;-1.328;2023-05-10T06:28:42;13.43;;;6.13;;
22363;SDS011;11349;53.412;-1.328;2023-05-10T06:31:07;13.05;;;4.90;;
22363;SDS011;11349;53.412;-1.328;2023-05-10T06:33:33;14.63;;;4.93;;
22363;SDS011;11349;53.412;-1.328;2023-05-10T06:35:59;11.23;;;5.05;;
22363;SDS011;11349;53.412;-1.328;2023-05-10T06:38:25;12.23;;;5.50;;
22363;SDS011;11349;53.412;-1.328;2023-05-10T06:40:51;10.80;;;5.28;;
22363;SDS011;11349;53.412;-1.328;2023-05-10T06:43:17;10.35;;;4.53;;
22363;SDS011;11349;53.412;-1.328;2023-05-10T06:45:42;15.15;;;5.00;;
22363;SDS011;11349;53.412;-1.328;2023-05-10T06:48:08;11.57;;;4.90;;
22363;SDS011;11349;53.412;-1.328;2023-05-10T06:50:34;14.43;;;4.13;;
22363;SDS011;11349;53.412;-1.328;2023-05-10T06:53:00;10.60;;;3.45;;
22363;SDS011;11349;53.412;-1.328;2023-05-10T06:55:26;8.65;;;3.67;;
22363;SDS011;11349;53.412;-1.328;2023-05-10T06:57:53;9.02;;;2.83;;
22363;SDS011;11349;53.412;-1.328;2023-05-10T07:00:19;11.43;;;3.38;;
22363;SDS011;11349;53.412;-1.328;2023-05-10T07:02:45;11.75;;;3.72;;
22363;SDS011;11349;53.412;-1.328;2023-05-10T07:05:11;10.52;;;2.75;;
22363;SDS011;11349;53.412;-1.328;2023-05-10T07:07:37;10.25;;;2.95;;
22363;SDS011;11349;53.412;-1.328;2023-05-10T07:10:03;12.82;;;3.78;;
22363;SDS011;11349;53.412;-1.328;2023-05-10T07:12:29;10.82;;;3.78;;
22363;SDS011;11349;53.412;-1.328;2023-05-10T07:14:55;8.80;;;2.78;;
22363;SDS011;11349;53.412;-1.328;2023-05-10T07:17:21;9.30;;;2.92;;
22363;SDS011;11349;53.412;-1.328;2023-05-10T07:19:46;8.70;;;3.20;;
22363;SDS011;11349;53.412;-1.328;2023-05-10T07:22:12;10.65;;;3.92;;
22363;SDS011;11349;53.412;-1.328;2023-05-10T07:24:38;7.97;;;2.50;;
22363;SDS011;11349;53.412;-1.328;2023-05-10T07:27:03;6.68;;;2.33;;
22363;SDS011;11349;53.412;-1.328;2023-05-10T07:29:29;8.68;;;2.25;;
22363;SDS011;11349;53.412;-1.328;2023-05-10T07:31:55;9.50;;;2.92;;
22363;SDS011;11349;53.412;-1.328;2023-05-10T07:34:21;7.32;;;2.47;;
22363;SDS011;11349;53.412;-1.328;2023-05-10T07:36:47;7.97;;;2.28;;
22363;SDS011;11349;53.412;-1.328;2023-05-10T07:39:12;6.63;;;1.90;;
22363;SDS011;11349;53.412;-1.328;2023-05-10T07:41:38;8.13;;;2.42;;
22363;SDS011;11349;53.412;-1.328;2023-05-10T07:44:04;7.70;;;2.53;;
22363;SDS011;11349;53.412;-1.328;2023-05-10T07:46:31;5.47;;;1.92;;
22363;SDS011;11349;53.412;-1.328;2023-05-10T07:48:56;6.57;;;2.05;;
22363;SDS011;11349;53.412;-1.328;2023-05-10T07:51:22;7.25;;;2.10;;
22363;SDS011;11349;53.412;-1.328;2023-05-10T07:53:48;5.95;;;2.53;;
22363;SDS011;11349;53.412;-1.328;2023-05-10T07:56:20;7.50;;;3.00;;
22363;SDS011;11349;53.412;-1.328;2023-05-10T07:59:01;5.30;;;2.10;;
22363;SDS011;11349;53.412;-1.328;2023-05-10T08:01:32;6.68;;;2.28;;
22363;SDS011;11349;53.412;-1.328;2023-05-10T08:03:59;4.28;;;1.65;;
22363;SDS011;11349;53.412;-1.328;2023-05-10T08:06:26;7.55;;;2.30;;
22363;SDS011;11349;53.412;-1.328;2023-05-10T08:08:54;6.65;;;1.70;;
22363;SDS011;11349;53.412;-1.328;2023-05-10T08:11:21;6.32;;;1.88;;
22363;SDS011;11349;53.412;-1.328;2023-05-10T08:13:47;8.30;;;1.90;;
22363;SDS011;11349;53.412;-1.328;2023-05-10T08:16:14;5.60;;;2.28;;
22363;SDS011;11349;53.412;-1.328;2023-05-10T08:18:44;6.03;;;1.88;;
22363;SDS011;11349;53.412;-1.328;2023-05-10T08:21:11;6.57;;;2.08;;
22363;SDS011;11349;53.412;-1.328;2023-05-10T08:23:38;4.72;;;1.80;;
22363;SDS011;11349;53.412;-1.328;2023-05-10T08:26:04;6.88;;;1.98;;
22363;SDS011;11349;53.412;-1.328;2023-05-10T08:28:30;6.18;;;1.90;;
22363;SDS011;11349;53.412;-1.328;2023-05-10T08:30:56;5.03;;;1.55;;
22363;SDS011;11349;53.412;-1.328;2023-05-10T08:33:22;6.15;;;2.10;;
22363;SDS011;11349;53.412;-1.328;2023-05-10T08:35:48;3.55;;;1.23;;
22363;SDS011;11349;53.412;-1.328;2023-05-10T08:38:15;5.72;;;2.28;;
22363;SDS011;11349;53.412;-1.328;2023-05-10T08:40:41;6.30;;;2.05;;
22363;SDS011;11349;53.412;-1.328;2023-05-10T08:43:08;6.32;;;2.65;;
22363;SDS011;11349;53.412;-1.328;2023-05-10T08:45:42;5.07;;;1.73;;
22363;SDS011;11349;53.412;-1.328;2023-05-10T08:48:11;5.60;;;1.75;;
22363;SDS011;11349;53.412;-1.328;2023-05-10T08:50:38;6.15;;;2.42;;
22363;SDS011;11349;53.412;-1.328;2023-05-10T08:53:06;10.10;;;3.67;;
22363;SDS011;11349;53.412;-1.328;2023-05-10T08:55:34;7.50;;;2.78;;
22363;SDS011;11349;53.412;-1.328;2023-05-10T08:58:07;5.25;;;2.08;;
22363;SDS011;11349;53.412;-1.328;2023-05-10T09:00:36;8.32;;;2.22;;
22363;SDS011;11349;53.412;-1.328;2023-05-10T09:03:04;5.18;;;2.00;;
22363;SDS011;11349;53.412;-1.328;2023-05-10T09:05:31;10.43;;;2.80;;
22363;SDS011;11349;53.412;-1.328;2023-05-10T09:07:57;6.68;;;2.45;;
22363;SDS011;11349;53.412;-1.328;2023-05-10T09:10:23;7.80;;;1.98;;
22363;SDS011;11349;53.412;-1.328;2023-05-10T09:12:52;9.65;;;1.80;;
22363;SDS011;11349;53.412;-1.328;2023-05-10T09:15:21;4.38;;;1.13;;
22363;SDS011;11349;53.412;-1.328;2023-05-10T09:17:47;3.92;;;1.25;;
22363;SDS011;11349;53.412;-1.328;2023-05-10T09:20:14;4.35;;;1.30;;
22363;SDS011;11349;53.412;-1.328;2023-05-10T09:22:40;6.63;;;2.53;;
22363;SDS011;11349;53.412;-1.328;2023-05-10T09:25:09;11.07;;;2.63;;
22363;SDS011;11349;53.412;-1.328;2023-05-10T09:27:37;5.22;;;1.88;;
22363;SDS011;11349;53.412;-1.328;2023-05-10T09:30:04;7.57;;;2.40;;
22363;SDS011;11349;53.412;-1.328;2023-05-10T09:32:37;5.93;;;1.90;;
22363;SDS011;11349;53.412;-1.328;2023-05-10T09:35:14;4.50;;;1.20;;
22363;SDS011;11349;53.412;-1.328;2023-05-10T09:37:42;4.50;;;1.45;;
22363;SDS011;11349;53.412;-1.328;2023-05-10T09:40:11;3.83;;;1.40;;
22363;SDS011;11349;53.412;-1.328;2023-05-10T09:42:39;4.60;;;1.88;;
22363;SDS011;11349;53.412;-1.328;2023-05-10T09:45:07;7.55;;;2.30;;
22363;SDS011;11349;53.412;-1.328;2023-05-10T09:47:33;6.10;;;1.90;;
22363;SDS011;11349;53.412;-1.328;2023-05-10T09:50:00;4.78;;;1.63;;
22363;SDS011;11349;53.412;-1.328;2023-05-10T09:52:49;4.60;;;1.20;;
22363;SDS011;11349;53.412;-1.328;2023-05-10T09:55:16;6.57;;;1.38;;
22363;SDS011;11349;53.412;-1.328;2023-05-10T09:57:43;5.60;;;1.48;;
22363;SDS011;11349;53.412;-1.328;2023-05-10T10:00:09;4.55;;;1.45;;
22363;SDS011;11349;53.412;-1.328;2023-05-10T10:02:35;7.53;;;1.80;;
22363;SDS011;11349;53.412;-1.328;2023-05-10T10:05:01;6.07;;;2.60;;
22363;SDS011;11349;53.412;-1.328;2023-05-10T10:07:31;6.43;;;2.35;;
22363;SDS011;11349;53.412;-1.328;2023-05-10T10:09:57;6.18;;;2.47;;
22363;SDS011;11349;53.412;-1.328;2023-05-10T10:12:23;6.47;;;2.30;;
22363;SDS011;11349;53.412;-1.328;2023-05-10T10:14:50;5.05;;;1.98;;
22363;SDS011;11349;53.412;-1.328;2023-05-10T10:17:16;4.88;;;1.88;;
22363;SDS011;11349;53.412;-1.328;2023-05-10T10:19:42;2.72;;;1.35;;
22363;SDS011;11349;53.412;-1.328;2023-05-10T10:22:09;6.25;;;1.83;;
22363;SDS011;11349;53.412;-1.328;2023-05-10T10:24:37;4.07;;;1.50;;
22363;SDS011;11349;53.412;-1.328;2023-05-10T10:27:10;5.78;;;1.80;;
22363;SDS011;11349;53.412;-1.328;2023-05-10T10:29:50;4.38;;;1.30;;
22363;SDS011;11349;53.412;-1.328;2023-05-10T10:35:39;4.55;;;1.50;;
22363;SDS011;11349;53.412;-1.328;2023-05-10T10:38:07;5.45;;;1.55;;
22363;SDS011;11349;53.412;-1.328;2023-05-10T10:40:37;3.80;;;1.77;;
22363;SDS011;11349;53.412;-1.328;2023-05-10T10:48:37;5.07;;;1.30;;
22363;SDS011;11349;53.412;-1.328;2023-05-10T10:51:03;3.00;;;1.33;;
22363;SDS011;11349;53.412;-1.328;2023-05-10T10:53:29;3.42;;;1.35;;
22363;SDS011;11349;53.412;-1.328;2023-05-10T10:56:05;5.53;;;1.77;;
22363;SDS011;11349;53.412;-1.328;2023-05-10T10:58:32;6.85;;;1.70;;
22363;SDS011;11349;53.412;-1.328;2023-05-10T11:01:12;4.93;;;1.40;;
22363;SDS011;11349;53.412;-1.328;2023-05-10T11:06:30;6.32;;;1.95;;
22363;SDS011;11349;53.412;-1.328;2023-05-10T11:08:57;4.85;;;1.20;;
22363;SDS011;11349;53.412;-1.328;2023-05-10T11:11:23;6.88;;;1.70;;
22363;SDS011;11349;53.412;-1.328;2023-05-10T11:13:49;5.20;;;1.60;;
22363;SDS011;11349;53.412;-1.328;2023-05-10T11:16:20;3.60;;;1.17;;
22363;SDS011;11349;53.412;-1.328;2023-05-10T11:19:05;3.03;;;1.15;;
22363;SDS011;11349;53.412;-1.328;2023-05-10T11:21:33;4.13;;;1.25;;
22363;SDS011;11349;53.412;-1.328;2023-05-10T11:24:12;3.58;;;1.83;;
22363;SDS011;11349;53.412;-1.328;2023-05-10T11:26:39;3.95;;;1.08;;
22363;SDS011;11349;53.412;-1.328;2023-05-10T11:29:05;3.63;;;1.17;;
22363;SDS011;11349;53.412;-1.328;2023-05-10T11:31:32;2.83;;;1.08;;
22363;SDS011;11349;53.412;-1.328;2023-05-10T11:33:58;3.28;;;1.10;;
22363;SDS011;11349;53.412;-1.328;2023-05-10T11:38:53;4.32;;;1.20;;
22363;SDS011;11349;53.412;-1.328;2023-05-10T11:41:20;8.43;;;1.67;;
22363;SDS011;11349;53.412;-1.328;2023-05-10T11:43:47;4.68;;;1.38;;
22363;SDS011;11349;53.412;-1.328;2023-05-10T11:46:14;5.63;;;1.80;;
22363;SDS011;11349;53.412;-1.328;2023-05-10T11:48:42;5.65;;;1.50;;
22363;SDS011;11349;53.412;-1.328;2023-05-10T11:51:08;4.05;;;1.48;;
22363;SDS011;11349;53.412;-1.328;2023-05-10T11:53:35;4.63;;;1.30;;
22363;SDS011;11349;53.412;-1.328;2023-05-10T11:58:32;5.00;;;1.35;;
22363;SDS011;11349;53.412;-1.328;2023-05-10T12:00:59;4.47;;;1.17;;
22363;SDS011;11349;53.412;-1.328;2023-05-10T12:03:25;3.58;;;1.00;;
22363;SDS011;11349;53.412;-1.328;2023-05-10T12:05:55;5.78;;;1.63;;
22363;SDS011;11349;53.412;-1.328;2023-05-10T12:08:25;4.03;;;0.90;;
22363;SDS011;11349;53.412;-1.328;2023-05-10T12:10:53;4.25;;;1.00;;
22363;SDS011;11349;53.412;-1.328;2023-05-10T12:13:28;6.00;;;1.23;;
22363;SDS011;11349;53.412;-1.328;2023-05-10T12:15:56;5.00;;;1.00;;
22363;SDS011;11349;53.412;-1.328;2023-05-10T12:18:23;1.98;;;0.98;;
22363;SDS011;11349;53.412;-1.328;2023-05-10T12:20:51;2.63;;;1.05;;
22363;SDS011;11349;53.412;-1.328;2023-05-10T12:23:18;3.33;;;1.05;;
22363;SDS011;11349;53.412;-1.328;2023-05-10T12:25:45;3.53;;;1.08;;
22363;SDS011;11349;53.412;-1.328;2023-05-10T12:28:11;3.42;;;0.95;;
22363;SDS011;11349;53.412;-1.328;2023-05-10T12:30:37;3.03;;;0.90;;
22363;SDS011;11349;53.412;-1.328;2023-05-10T12:33:13;3.90;;;1.73;;
22363;SDS011;11349;53.412;-1.328;2023-05-10T12:35:46;5.85;;;0.98;;
22363;SDS011;11349;53.412;-1.328;2023-05-10T12:38:49;2.42;;;1.08;;
22363;SDS011;11349;53.412;-1.328;2023-05-10T12:41:14;4.13;;;1.15;;
22363;SDS011;11349;53.412;-1.328;2023-05-10T12:43:41;4.68;;;1.10;;
22363;SDS011;11349;53.412;-1.328;2023-05-10T12:46:16;4.05;;;1.10;;
22363;SDS011;11349;53.412;-1.328;2023-05-10T12:48:43;7.22;;;2.22;;
22363;SDS011;11349;53.412;-1.328;2023-05-10T12:51:10;5.85;;;1.60;;
22363;SDS011;11349;53.412;-1.328;2023-05-10T12:53:42;3.13;;;1.02;;
22363;SDS011;11349;53.412;-1.328;2023-05-10T12:56:08;1.15;;;0.73;;
22363;SDS011;11349;53.412;-1.328;2023-05-10T12:58:34;1.17;;;0.47;;
22363;SDS011;11349;53.412;-1.328;2023-05-10T13:01:00;1.42;;;0.60;;
22363;SDS011;11349;53.412;-1.328;2023-05-10T13:03:26;3.53;;;0.60;;
22363;SDS011;11349;53.412;-1.328;2023-05-10T13:05:52;1.23;;;0.60;;
22363;SDS011;11349;53.412;-1.328;2023-05-10T13:08:17;3.20;;;0.63;;
22363;SDS011;11349;53.412;-1.328;2023-05-10T13:10:43;2.42;;;0.88;;
22363;SDS011;11349;53.412;-1.328;2023-05-10T13:13:09;2.92;;;0.90;;
22363;SDS011;11349;53.412;-1.328;2023-05-10T13:15:35;2.35;;;0.75;;
22363;SDS011;11349;53.412;-1.328;2023-05-10T13:18:01;3.17;;;0.93;;
22363;SDS011;11349;53.412;-1.328;2023-05-10T13:20:26;5.55;;;2.03;;
22363;SDS011;11349;53.412;-1.328;2023-05-10T13:22:52;4.82;;;1.80;;
22363;SDS011;11349;53.412;-1.328;2023-05-10T13:25:18;2.38;;;0.82;;
22363;SDS011;11349;53.412;-1.328;2023-05-10T13:27:44;1.35;;;0.55;;
22363;SDS011;11349;53.412;-1.328;2023-05-10T13:30:10;2.78;;;0.90;;
22363;SDS011;11349;53.412;-1.328;2023-05-10T13:32:36;2.72;;;0.98;;
22363;SDS011;11349;53.412;-1.328;2023-05-10T13:35:03;2.53;;;1.00;;
22363;SDS011;11349;53.412;-1.328;2023-05-10T13:37:29;3.55;;;1.50;;
22363;SDS011;11349;53.412;-1.328;2023-05-10T13:39:56;1.90;;;0.80;;
22363;SDS011;11349;53.412;-1.328;2023-05-10T13:42:22;2.25;;;1.20;;
22363;SDS011;11349;53.412;-1.328;2023-05-10T13:44:48;3.22;;;1.38;;
22363;SDS011;11349;53.412;-1.328;2023-05-10T13:47:14;2.83;;;1.23;;
22363;SDS011;11349;53.412;-1.328;2023-05-10T13:49:40;3.08;;;1.50;;
22363;SDS011;11349;53.412;-1.328;2023-05-10T13:52:09;4.88;;;2.00;;
22363;SDS011;11349;53.412;-1.328;2023-05-10T13:54:37;6.30;;;2.45;;
22363;SDS011;11349;53.412;-1.328;2023-05-10T13:57:03;7.20;;;3.53;;
22363;SDS011;11349;53.412;-1.328;2023-05-10T13:59:29;7.10;;;2.42;;
22363;SDS011;11349;53.412;-1.328;2023-05-10T14:01:59;8.38;;;2.40;;
22363;SDS011;11349;53.412;-1.328;2023-05-10T14:04:27;8.73;;;1.98;;
22363;SDS011;11349;53.412;-1.328;2023-05-10T14:06:53;4.75;;;1.33;;
22363;SDS011;11349;53.412;-1.328;2023-05-10T14:09:19;5.30;;;1.55;;
22363;SDS011;11349;53.412;-1.328;2023-05-10T14:11:45;3.15;;;0.70;;
22363;SDS011;11349;53.412;-1.328;2023-05-10T14:14:11;4.22;;;1.35;;
22363;SDS011;11349;53.412;-1.328;2023-05-10T14:16:38;2.42;;;0.80;;
22363;SDS011;11349;53.412;-1.328;2023-05-10T14:19:08;3.20;;;0.65;;
22363;SDS011;11349;53.412;-1.328;2023-05-10T14:21:33;5.05;;;1.02;;
22363;SDS011;11349;53.412;-1.328;2023-05-10T14:23:59;2.20;;;0.80;;
22363;SDS011;11349;53.412;-1.328;2023-05-10T14:26:25;3.55;;;0.80;;
22363;SDS011;11349;53.412;-1.328;2023-05-10T14:28:51;2.00;;;0.80;;
22363;SDS011;11349;53.412;-1.328;2023-05-10T14:31:17;2.55;;;0.95;;
22363;SDS011;11349;53.412;-1.328;2023-05-10T14:33:45;4.57;;;1.27;;
22363;SDS011;11349;53.412;-1.328;2023-05-10T14:36:11;3.72;;;1.00;;
22363;SDS011;11349;53.412;-1.328;2023-05-10T14:38:37;4.72;;;0.93;;
22363;SDS011;11349;53.412;-1.328;2023-05-10T14:41:04;5.30;;;1.35;;
22363;SDS011;11349;53.412;-1.328;2023-05-10T14:43:30;2.50;;;0.90;;
22363;SDS011;11349;53.412;-1.328;2023-05-10T14:45:56;2.17;;;0.80;;
22363;SDS011;11349;53.412;-1.328;2023-05-10T14:48:24;2.00;;;0.65;;
22363;SDS011;11349;53.412;-1.328;2023-05-10T14:50:50;3.80;;;0.75;;
22363;SDS011;11349;53.412;-1.328;2023-05-10T14:53:17;1.67;;;0.85;;
22363;SDS011;11349;53.412;-1.328;2023-05-10T14:55:43;1.63;;;0.80;;
22363;SDS011;11349;53.412;-1.328;2023-05-10T14:58:09;3.97;;;1.50;;
22363;SDS011;11349;53.412;-1.328;2023-05-10T15:00:34;2.72;;;0.70;;
22363;SDS011;11349;53.412;-1.328;2023-05-10T15:03:01;1.90;;;0.70;;
22363;SDS011;11349;53.412;-1.328;2023-05-10T15:05:27;2.30;;;0.93;;
22363;SDS011;11349;53.412;-1.328;2023-05-10T15:07:52;0.93;;;0.60;;